Time;durP1;ratioP1;P1;durP2;ratioP2;P2;SDS_P1;SDS_P2;PMS_P1;PMS_P2;Temp;Humidity;BMP_temperature;BMP_pressure;BME280_temperature;BME280_humidity;BME280_pressure;Samples;Min_cycle;Max_cycle;Signal;HPM_P1;HPM_P2
2022/09/18 00:02:05;;;;;;;10.40;1.98;;;9.50;99.90;;;;;;5061602;28;20406;-65
2022/09/18 00:04:31;;;;;;;11.68;1.92;;;9.50;99.90;;;;;;5051479;28;20048;-64
2022/09/18 00:06:57;;;;;;;9.48;2.45;;;9.40;99.90;;;;;;5060322;28;20041;-64
2022/09/18 00:09:22;;;;;;;14.88;1.90;;;9.50;99.90;;;;;;5067879;28;20074;-64
2022/09/18 00:11:50;;;;;;;9.93;1.90;;;9.50;99.90;;;;;;5067388;28;20053;-64
2022/09/18 00:14:25;;;;;;;10.48;1.70;;;9.50;99.90;;;;;;5051054;28;20095;-65
2022/09/18 00:16:50;;;;;;;9.40;1.48;;;9.60;99.90;;;;;;5065532;28;20451;-65
2022/09/18 00:19:19;;;;;;;8.02;1.83;;;9.50;99.90;;;;;;5048313;28;20061;-64
2022/09/18 00:21:48;;;;;;;13.10;2.05;;;9.60;99.90;;;;;;5062147;28;20048;-64
2022/09/18 00:24:16;;;;;;;11.02;2.30;;;9.60;99.90;;;;;;5053866;28;20047;-65
2022/09/18 00:26:41;;;;;;;10.65;1.80;;;9.50;99.90;;;;;;5057599;28;20056;-65
2022/09/18 00:29:09;;;;;;;11.57;2.10;;;9.60;99.90;;;;;;5058264;28;20037;-64
2022/09/18 00:31:36;;;;;;;11.98;2.10;;;9.50;99.90;;;;;;5051498;28;20091;-65
2022/09/18 00:34:04;;;;;;;9.75;1.55;;;9.60;99.90;;;;;;5061906;28;20521;-65
2022/09/18 00:36:30;;;;;;;10.38;2.13;;;9.60;99.90;;;;;;5047523;28;20037;-64
2022/09/18 00:38:58;;;;;;;12.63;1.73;;;9.60;99.90;;;;;;5065203;28;20040;-65
2022/09/18 00:41:30;;;;;;;7.88;1.63;;;9.60;99.90;;;;;;5051112;28;20080;-64
2022/09/18 00:44:32;;;;;;;15.23;2.20;;;9.70;99.90;;;;;;5058145;28;20044;-65
2022/09/18 00:47:05;;;;;;;8.13;1.60;;;9.80;99.90;;;;;;5061183;28;20613;-65
2022/09/18 00:49:32;;;;;;;8.07;1.65;;;9.90;99.90;;;;;;5047033;28;20055;-64
2022/09/18 00:51:59;;;;;;;10.90;1.70;;;10.30;99.90;;;;;;5064029;28;20490;-65
2022/09/18 00:54:35;;;;;;;8.27;1.85;;;10.10;99.90;;;;;;5050416;28;20083;-64
2022/09/18 00:57:08;;;;;;;8.48;1.73;;;10.20;99.90;;;;;;5058932;28;20059;-64
2022/09/18 00:59:35;;;;;;;10.68;1.85;;;10.20;99.90;;;;;;5056359;28;20040;-65
2022/09/18 01:02:02;;;;;;;9.73;1.85;;;10.20;99.90;;;;;;5052709;28;20084;-65
2022/09/18 01:04:29;;;;;;;11.52;2.08;;;10.20;99.90;;;;;;5060078;28;20406;-64
2022/09/18 01:07:08;;;;;;;8.73;1.80;;;10.20;99.90;;;;;;5058364;28;20045;-65
2022/09/18 01:09:57;;;;;;;8.90;1.73;;;10.10;99.90;;;;;;5047489;28;20120;-65
2022/09/18 01:12:45;;;;;;;12.45;1.55;;;10.10;99.90;;;;;;5065718;28;20060;-65
2022/09/18 01:15:36;;;;;;;11.25;2.10;;;10.00;99.90;;;;;;5052605;28;20060;-65
2022/09/18 01:18:15;;;;;;;7.38;1.50;;;10.00;99.90;;;;;;5063565;28;20063;-64
2022/09/18 01:21:02;;;;;;;8.43;1.77;;;9.90;99.90;;;;;;5050078;28;20679;-65
2022/09/18 01:23:42;;;;;;;9.75;2.03;;;9.90;99.90;;;;;;5055920;28;20053;-65
2022/09/18 01:26:45;;;;;;;9.55;1.73;;;9.80;99.90;;;;;;5057393;28;20080;-65
2022/09/18 01:29:35;;;;;;;8.57;1.75;;;9.80;99.90;;;;;;5047583;28;20049;-64
2022/09/18 01:32:13;;;;;;;10.13;1.60;;;9.80;99.90;;;;;;5065497;28;20076;-64
2022/09/18 01:34:55;;;;;;;12.77;2.08;;;9.80;99.90;;;;;;5051974;28;20052;-65
2022/09/18 01:37:38;;;;;;;9.57;1.67;;;9.90;99.90;;;;;;5061563;28;20067;-65
2022/09/18 01:40:16;;;;;;;9.95;2.00;;;9.80;99.90;;;;;;5047220;28;20048;-64
2022/09/18 01:42:46;;;;;;;8.38;1.52;;;9.70;99.90;;;;;;5059709;28;20448;-65
2022/09/18 01:45:16;;;;;;;11.95;1.95;;;9.70;99.90;;;;;;5053178;28;20062;-64
2022/09/18 01:47:49;;;;;;;9.75;1.65;;;9.70;99.90;;;;;;5053542;28;20081;-64
2022/09/18 01:50:16;;;;;;;9.80;1.75;;;9.60;99.90;;;;;;5058983;28;20044;-65
2022/09/18 01:52:49;;;;;;;10.70;1.90;;;9.60;99.90;;;;;;5049381;28;20395;-65
2022/09/18 01:55:19;;;;;;;10.07;1.73;;;9.90;99.90;;;;;;5061776;28;20094;-65
2022/09/18 01:58:03;;;;;;;10.13;1.90;;;9.50;99.90;;;;;;5048428;28;20043;-64
2022/09/18 02:00:30;;;;;;;13.32;2.60;;;9.50;99.90;;;;;;5057655;28;20439;-64
2022/09/18 02:03:06;;;;;;;10.10;2.00;;;9.50;99.90;;;;;;5054793;28;20087;-65
2022/09/18 02:05:47;;;;;;;12.15;1.65;;;9.50;99.90;;;;;;5053574;28;20048;-65
2022/09/18 02:08:27;;;;;;;13.65;1.98;;;9.50;99.90;;;;;;5062752;28;20044;-65
2022/09/18 02:10:58;;;;;;;8.90;1.30;;;9.60;99.90;;;;;;5048653;28;20036;-65
2022/09/18 02:13:28;;;;;;;11.90;1.73;;;9.80;99.90;;;;;;5065128;28;20052;-64
2022/09/18 02:16:02;;;;;;;6.80;1.35;;;9.70;99.90;;;;;;5119776;22;20126;-64
2022/09/18 02:18:36;;;;;;;9.90;1.52;;;9.70;99.90;;;;;;5044232;28;20144;-64
2022/09/18 02:21:05;;;;;;;9.85;1.65;;;9.80;99.90;;;;;;5028783;28;20057;-66
2022/09/18 02:23:32;;;;;;;11.07;2.03;;;9.70;99.90;;;;;;5027005;28;20049;-64
2022/09/18 02:26:03;;;;;;;9.63;1.85;;;9.60;99.90;;;;;;5042510;28;20041;-64
2022/09/18 02:28:30;;;;;;;8.07;1.88;;;9.70;99.90;;;;;;5029172;28;20098;-64
2022/09/18 02:30:58;;;;;;;11.18;1.65;;;9.60;99.90;;;;;;5026219;28;20045;-65
2022/09/18 02:33:25;;;;;;;9.73;1.42;;;9.60;99.90;;;;;;5044159;28;20060;-64
2022/09/18 02:36:18;;;;;;;8.27;1.48;;;9.80;99.90;;;;;;5033507;28;20080;-65
2022/09/18 02:39:13;;;;;;;8.93;1.85;;;9.60;99.90;;;;;;5040912;28;20049;-65
2022/09/18 02:42:13;;;;;;;10.30;1.70;;;9.60;99.90;;;;;;5028650;28;20048;-64
2022/09/18 02:44:53;;;;;;;7.90;1.55;;;9.60;99.90;;;;;;5033084;28;20057;-64
2022/09/18 02:47:34;;;;;;;12.43;1.52;;;9.70;99.90;;;;;;5038865;28;20045;-64
2022/09/18 02:50:23;;;;;;;6.32;1.35;;;9.70;99.90;;;;;;5026353;28;20511;-65
2022/09/18 02:53:02;;;;;;;10.27;1.35;;;10.00;99.90;;;;;;5037636;28;20054;-64
2022/09/18 02:55:36;;;;;;;7.47;1.40;;;9.80;99.90;;;;;;5034397;28;20048;-64
2022/09/18 02:58:06;;;;;;;9.85;1.40;;;9.70;99.90;;;;;;5031041;28;20073;-64
2022/09/18 03:00:32;;;;;;;6.35;1.70;;;9.80;99.90;;;;;;5044294;28;20049;-65
2022/09/18 03:02:58;;;;;;;8.43;1.45;;;9.80;99.90;;;;;;5029714;28;20071;-64
2022/09/18 03:05:27;;;;;;;9.80;1.50;;;9.80;99.90;;;;;;5046341;28;20411;-64
2022/09/18 03:07:52;;;;;;;12.10;1.48;;;10.00;99.90;;;;;;5039783;28;20403;-65
2022/09/18 03:10:18;;;;;;;8.15;1.70;;;9.70;99.90;;;;;;5042241;28;20041;-64
2022/09/18 03:12:44;;;;;;;9.75;1.55;;;9.80;99.90;;;;;;5036119;28;20127;-64
2022/09/18 03:15:10;;;;;;;14.50;2.05;;;9.80;99.90;;;;;;5046877;28;20049;-64
2022/09/18 03:17:36;;;;;;;9.63;1.70;;;9.80;99.90;;;;;;5035504;28;20061;-64
2022/09/18 03:20:03;;;;;;;12.77;2.00;;;9.80;99.90;;;;;;5028413;28;20045;-64
2022/09/18 03:22:28;;;;;;;8.80;1.45;;;9.80;99.90;;;;;;5035077;28;20116;-65
2022/09/18 03:24:54;;;;;;;9.10;1.50;;;9.80;99.90;;;;;;5029181;28;20128;-64
2022/09/18 03:27:19;;;;;;;9.13;1.75;;;9.80;99.90;;;;;;5045010;28;20060;-66
2022/09/18 03:29:45;;;;;;;9.13;1.52;;;9.70;99.90;;;;;;5038650;28;20041;-65
2022/09/18 03:32:11;;;;;;;11.23;1.63;;;9.80;99.90;;;;;;5032977;28;20067;-65
2022/09/18 03:34:37;;;;;;;9.32;1.77;;;9.90;99.90;;;;;;5038389;28;20528;-65
2022/09/18 03:37:03;;;;;;;9.00;1.52;;;10.20;99.90;;;;;;5038503;28;20051;-65
2022/09/18 03:39:29;;;;;;;7.45;1.67;;;9.70;99.90;;;;;;5035273;28;20037;-65
2022/09/18 03:41:54;;;;;;;12.68;2.45;;;9.70;99.90;;;;;;5043233;28;20128;-65
2022/09/18 03:44:20;;;;;;;9.68;1.65;;;10.00;99.90;;;;;;5030688;28;20033;-65
2022/09/18 03:46:46;;;;;;;11.52;1.95;;;9.80;99.90;;;;;;5045121;28;20040;-65
2022/09/18 03:49:11;;;;;;;12.07;1.90;;;10.10;99.90;;;;;;5029625;28;20128;-65
2022/09/18 03:51:37;;;;;;;10.07;1.70;;;9.80;99.90;;;;;;5042391;28;20048;-65
2022/09/18 03:54:03;;;;;;;10.23;2.05;;;10.20;99.90;;;;;;5034860;28;20044;-65
2022/09/18 03:56:29;;;;;;;13.25;2.15;;;9.70;99.90;;;;;;5038397;28;20511;-64
2022/09/18 03:58:54;;;;;;;12.25;2.15;;;9.90;99.90;;;;;;5038555;28;20502;-64
2022/09/18 04:01:20;;;;;;;9.43;2.50;;;9.70;99.90;;;;;;5034618;28;20053;-65
2022/09/18 04:03:46;;;;;;;13.18;2.13;;;10.00;99.90;;;;;;5040736;28;20068;-64
2022/09/18 04:06:11;;;;;;;10.13;1.75;;;9.70;99.90;;;;;;5036539;28;20403;-65
2022/09/18 04:08:37;;;;;;;11.27;2.05;;;9.70;99.90;;;;;;5047138;28;20045;-64
2022/09/18 04:11:04;;;;;;;12.10;1.75;;;9.70;99.90;;;;;;5042986;28;20053;-65
2022/09/18 04:13:31;;;;;;;11.63;1.63;;;9.70;99.90;;;;;;5032029;28;20120;-65
2022/09/18 04:15:56;;;;;;;12.60;1.65;;;9.70;99.90;;;;;;5039373;28;20056;-64
2022/09/18 04:18:22;;;;;;;13.52;2.05;;;9.90;99.90;;;;;;5036152;28;20076;-65
2022/09/18 04:20:48;;;;;;;10.38;2.00;;;9.70;99.90;;;;;;5036390;28;20042;-64
2022/09/18 04:23:14;;;;;;;7.82;1.60;;;9.70;99.90;;;;;;5040093;28;20119;-64
2022/09/18 04:25:41;;;;;;;7.70;1.38;;;10.00;99.90;;;;;;5031797;28;20060;-64
2022/09/18 04:28:06;;;;;;;7.68;1.50;;;9.80;99.90;;;;;;5044176;28;20407;-64
2022/09/18 04:30:32;;;;;;;7.25;1.40;;;9.80;99.90;;;;;;5045118;28;20049;-64
2022/09/18 04:32:57;;;;;;;6.38;1.63;;;9.80;99.90;;;;;;5030025;28;20167;-64
2022/09/18 04:35:23;;;;;;;6.53;1.50;;;9.80;99.90;;;;;;5041337;28;20132;-65
2022/09/18 04:37:49;;;;;;;9.32;1.80;;;9.80;99.90;;;;;;5033405;28;20106;-64
2022/09/18 04:40:14;;;;;;;7.47;1.70;;;9.90;99.90;;;;;;5037314;28;20480;-64
2022/09/18 04:42:40;;;;;;;9.07;1.50;;;9.90;99.90;;;;;;5037656;28;20068;-64
2022/09/18 04:45:07;;;;;;;8.40;1.45;;;10.30;99.90;;;;;;5031806;28;20045;-64
2022/09/18 04:47:33;;;;;;;11.93;2.35;;;10.10;99.90;;;;;;5040438;28;20526;-64
2022/09/18 04:49:58;;;;;;;12.05;1.83;;;10.10;99.90;;;;;;5029399;28;20045;-64
2022/09/18 04:52:24;;;;;;;8.57;1.65;;;10.10;99.90;;;;;;5044428;28;20045;-65
2022/09/18 04:54:50;;;;;;;12.10;1.95;;;10.10;99.90;;;;;;5030089;28;20530;-64
2022/09/18 04:57:15;;;;;;;9.45;1.70;;;10.10;99.90;;;;;;5041287;28;20046;-64
2022/09/18 04:59:41;;;;;;;7.45;1.60;;;10.20;99.90;;;;;;5033524;28;20140;-64
2022/09/18 05:02:06;;;;;;;8.18;1.50;;;10.10;99.90;;;;;;5045121;28;20049;-65
2022/09/18 05:04:32;;;;;;;8.52;1.40;;;10.10;99.90;;;;;;5034493;28;20124;-64
2022/09/18 05:06:58;;;;;;;6.38;1.42;;;10.20;99.90;;;;;;5040017;28;20131;-65
2022/09/18 05:09:23;;;;;;;11.32;1.55;;;10.20;99.90;;;;;;5039861;28;20049;-65
2022/09/18 05:11:50;;;;;;;8.20;1.80;;;10.20;99.90;;;;;;5028870;28;20087;-64
2022/09/18 05:14:15;;;;;;;7.10;1.35;;;10.20;99.90;;;;;;5043222;28;20489;-64
2022/09/18 05:16:41;;;;;;;6.45;1.60;;;10.10;99.90;;;;;;5028873;28;20088;-64
2022/09/18 05:19:07;;;;;;;6.95;1.60;;;10.10;99.90;;;;;;5040087;28;20084;-64
2022/09/18 05:21:33;;;;;;;8.10;1.50;;;10.10;99.90;;;;;;5033195;28;20049;-64
2022/09/18 05:23:59;;;;;;;7.70;1.90;;;10.00;99.90;;;;;;5034774;28;20099;-64
2022/09/18 05:26:25;;;;;;;8.07;2.10;;;10.00;99.90;;;;;;5036690;28;20078;-65
2022/09/18 05:28:51;;;;;;;8.75;2.10;;;10.00;99.90;;;;;;5032486;28;20045;-64
2022/09/18 05:31:17;;;;;;;8.73;2.42;;;10.00;99.90;;;;;;5040190;28;20507;-64
2022/09/18 05:33:42;;;;;;;10.30;2.65;;;10.00;99.90;;;;;;5026740;28;20132;-65
2022/09/18 05:36:09;;;;;;;9.77;1.70;;;10.00;99.90;;;;;;5043583;28;20475;-65
2022/09/18 05:38:35;;;;;;;5.95;1.25;;;10.00;99.90;;;;;;5028952;28;20036;-65
2022/09/18 05:41:01;;;;;;;9.48;1.80;;;10.00;99.90;;;;;;5044334;28;20040;-64
2022/09/18 05:43:28;;;;;;;7.60;1.20;;;10.90;99.90;;;;;;5044878;28;20045;-64
2022/09/18 05:45:53;;;;;;;9.35;1.50;;;10.00;99.90;;;;;;5034025;28;20662;-65
2022/09/18 05:48:19;;;;;;;7.63;1.40;;;10.20;99.90;;;;;;5036650;28;20049;-65
2022/09/18 05:50:45;;;;;;;10.50;2.00;;;10.10;99.90;;;;;;5029894;28;20053;-64
2022/09/18 05:53:15;;;;;;;7.00;1.50;;;10.00;99.90;;;;;;5041269;28;20045;-65
2022/09/18 05:55:41;;;;;;;16.02;2.90;;;10.20;99.90;;;;;;5027093;28;20408;-65
2022/09/18 05:58:11;;;;;;;13.20;2.15;;;10.30;99.90;;;;;;5040736;28;20113;-65
2022/09/18 06:00:37;;;;;;;7.88;1.75;;;10.30;99.90;;;;;;5030618;28;20636;-65
2022/09/18 06:03:08;;;;;;;8.13;1.42;;;10.30;99.90;;;;;;5037218;28;20037;-65
2022/09/18 06:05:36;;;;;;;11.13;2.03;;;10.20;99.90;;;;;;5030185;28;20048;-65
2022/09/18 06:08:07;;;;;;;7.97;1.50;;;10.10;99.90;;;;;;5044595;28;20041;-65
2022/09/18 06:10:36;;;;;;;8.60;1.40;;;10.10;99.90;;;;;;5044964;28;20029;-65
2022/09/18 06:13:06;;;;;;;8.50;1.77;;;10.00;99.90;;;;;;5027354;28;20472;-65
2022/09/18 06:15:33;;;;;;;8.95;1.67;;;10.00;99.90;;;;;;5027109;28;20041;-64
2022/09/18 06:17:59;;;;;;;8.32;1.50;;;10.00;99.90;;;;;;5039668;28;20056;-65
2022/09/18 06:20:25;;;;;;;7.18;1.40;;;10.20;99.90;;;;;;5031142;28;20048;-65
2022/09/18 06:22:51;;;;;;;6.70;1.60;;;10.10;99.90;;;;;;5037014;28;20042;-65
2022/09/18 06:25:20;;;;;;;5.93;1.20;;;10.00;99.90;;;;;;5035546;28;20048;-65
2022/09/18 06:27:46;;;;;;;6.68;1.13;;;11.50;99.90;;;;;;5044807;28;20126;-64
2022/09/18 06:30:12;;;;;;;7.20;1.45;;;10.00;99.90;;;;;;5030470;28;20659;-65
2022/09/18 06:32:38;;;;;;;7.90;1.20;;;10.00;99.90;;;;;;5041646;28;20041;-65
2022/09/18 06:35:04;;;;;;;6.05;1.30;;;10.10;99.90;;;;;;5028622;28;20131;-64
2022/09/18 06:37:30;;;;;;;10.25;1.45;;;10.00;99.90;;;;;;5045230;28;20041;-65
2022/09/18 06:39:55;;;;;;;7.53;1.20;;;10.30;99.90;;;;;;5033925;28;20044;-65
2022/09/18 06:42:21;;;;;;;8.38;1.55;;;10.00;99.90;;;;;;5041552;28;20045;-64
2022/09/18 06:44:47;;;;;;;8.48;1.70;;;10.00;99.90;;;;;;5037708;28;20045;-65
2022/09/18 06:47:12;;;;;;;7.28;1.45;;;10.10;99.90;;;;;;5035544;28;20085;-65
2022/09/18 06:49:38;;;;;;;7.60;1.35;;;10.10;99.90;;;;;;5041745;28;20043;-66
2022/09/18 06:52:04;;;;;;;8.75;1.63;;;10.10;99.90;;;;;;5044673;28;20545;-65
2022/09/18 06:54:29;;;;;;;7.78;1.00;;;10.10;99.90;;;;;;5048240;28;20388;-65
2022/09/18 06:56:55;;;;;;;8.98;1.30;;;10.20;99.90;;;;;;5029946;28;20144;-66
2022/09/18 06:59:21;;;;;;;6.32;1.23;;;10.10;99.90;;;;;;5045692;28;20048;-66
2022/09/18 07:01:47;;;;;;;5.65;1.10;;;10.10;99.90;;;;;;5032714;28;20041;-66
2022/09/18 07:04:13;;;;;;;6.97;1.00;;;10.20;99.90;;;;;;5040128;28;20049;-66
2022/09/18 07:06:41;;;;;;;7.95;1.08;;;10.10;99.90;;;;;;5039145;28;20041;-67
2022/09/18 07:09:08;;;;;;;4.75;1.05;;;10.10;99.90;;;;;;5039144;28;20056;-65
2022/09/18 07:11:35;;;;;;;7.07;1.08;;;10.00;99.90;;;;;;5034276;28;20099;-66
2022/09/18 07:14:03;;;;;;;6.72;1.60;;;10.00;99.90;;;;;;5043109;28;20426;-66
2022/09/18 07:16:29;;;;;;;7.43;1.10;;;10.00;99.90;;;;;;5030021;28;20062;-65
2022/09/18 07:18:55;;;;;;;7.07;1.40;;;10.00;99.90;;;;;;5045092;28;20098;-66
2022/09/18 07:21:20;;;;;;;5.28;1.00;;;10.00;99.90;;;;;;5032780;28;20122;-65
2022/09/18 07:23:46;;;;;;;6.72;1.15;;;10.00;99.90;;;;;;5046809;28;20041;-66
2022/09/18 07:26:11;;;;;;;6.22;1.17;;;10.00;99.90;;;;;;5047562;28;20464;-66
2022/09/18 07:28:37;;;;;;;6.70;0.95;;;10.10;99.90;;;;;;5037652;28;20045;-65
2022/09/18 07:31:04;;;;;;;6.35;1.13;;;10.00;99.90;;;;;;5039502;28;20582;-65
2022/09/18 07:33:31;;;;;;;7.50;1.20;;;10.10;99.90;;;;;;5031237;28;20048;-65
2022/09/18 07:36:04;;;;;;;9.50;1.50;;;10.10;99.90;;;;;;5043098;28;20474;-65
2022/09/18 07:38:30;;;;;;;8.88;2.60;;;10.10;99.90;;;;;;5029231;28;20492;-65
2022/09/18 07:40:59;;;;;;;11.00;2.33;;;11.30;99.90;;;;;;5044697;28;20056;-64
2022/09/18 07:43:25;;;;;;;11.75;2.03;;;10.20;99.90;;;;;;5032825;28;20092;-65
2022/09/18 07:45:50;;;;;;;9.55;1.90;;;10.20;99.90;;;;;;5038489;28;20054;-64
2022/09/18 07:48:16;;;;;;;9.52;2.13;;;10.20;99.90;;;;;;5035082;28;20752;-64
2022/09/18 07:50:42;;;;;;;8.00;1.30;;;10.30;99.90;;;;;;5034454;28;20049;-64
2022/09/18 07:53:08;;;;;;;9.13;1.40;;;10.30;99.90;;;;;;5041708;28;20037;-64
2022/09/18 07:55:38;;;;;;;6.88;1.70;;;10.40;99.90;;;;;;5030848;28;20056;-64
2022/09/18 07:58:06;;;;;;;6.03;1.20;;;10.40;99.90;;;;;;5045719;28;20437;-65
2022/09/18 08:00:35;;;;;;;5.55;1.10;;;10.40;99.90;;;;;;5029770;28;20067;-65
2022/09/18 08:03:02;;;;;;;11.48;1.40;;;10.40;99.90;;;;;;5041556;28;20123;-64
2022/09/18 08:05:28;;;;;;;8.15;1.25;;;10.40;99.90;;;;;;5030600;28;20049;-64
2022/09/18 08:07:53;;;;;;;8.23;1.00;;;10.50;99.90;;;;;;5045329;28;20516;-64
2022/09/18 08:10:19;;;;;;;6.70;1.45;;;10.50;99.90;;;;;;5047958;28;20045;-64
2022/09/18 08:12:44;;;;;;;10.27;1.67;;;10.50;99.90;;;;;;5045136;28;20114;-64
2022/09/18 08:15:10;;;;;;;5.22;1.58;;;10.50;99.90;;;;;;5047290;28;20045;-64
2022/09/18 08:17:44;;;;;;;4.97;1.20;;;11.00;99.90;;;;;;5028515;28;20128;-64
2022/09/18 08:20:10;;;;;;;7.83;1.00;;;11.00;99.90;;;;;;5029537;28;20053;-64
2022/09/18 08:22:39;;;;;;;9.10;1.92;;;10.70;99.90;;;;;;5042957;28;20543;-64
2022/09/18 08:25:06;;;;;;;6.05;1.90;;;10.60;99.90;;;;;;5034140;28;20045;-64
2022/09/18 08:27:35;;;;;;;6.53;1.30;;;10.60;99.90;;;;;;5040232;28;20628;-64
2022/09/18 08:30:00;;;;;;;8.95;1.70;;;10.70;99.90;;;;;;5036402;28;20419;-64
2022/09/18 08:32:26;;;;;;;7.53;1.30;;;10.60;99.90;;;;;;5034000;28;20037;-64
2022/09/18 08:34:52;;;;;;;8.35;1.52;;;11.00;99.90;;;;;;5046108;28;20090;-65
2022/09/18 08:37:17;;;;;;;10.32;2.20;;;10.70;99.90;;;;;;5027394;28;20603;-65
2022/09/18 08:39:43;;;;;;;11.45;2.17;;;10.80;99.90;;;;;;5044495;28;20045;-66
2022/09/18 08:42:16;;;;;;;9.55;2.10;;;11.70;99.90;;;;;;5030289;28;20048;-64
2022/09/18 08:44:54;;;;;;;5.80;1.20;;;10.90;99.90;;;;;;5039247;28;20067;-66
2022/09/18 08:47:39;;;;;;;9.52;1.50;;;10.60;99.90;;;;;;5036364;28;20084;-67
2022/09/18 08:50:13;;;;;;;7.75;1.42;;;10.60;99.90;;;;;;5030994;28;20115;-69
2022/09/18 08:52:44;;;;;;;8.52;1.80;;;10.60;99.90;;;;;;5044035;28;20053;-65
2022/09/18 08:55:26;;;;;;;6.18;1.40;;;10.60;99.90;;;;;;5029349;28;20041;-65
2022/09/18 08:57:58;;;;;;;7.38;1.25;;;10.50;99.90;;;;;;5038438;28;20109;-65
2022/09/18 09:00:40;;;;;;;7.38;1.50;;;10.50;99.90;;;;;;5035606;28;20089;-65
2022/09/18 09:03:21;;;;;;;5.70;1.40;;;10.50;99.90;;;;;;5030326;28;20566;-65
2022/09/18 09:05:58;;;;;;;7.40;1.80;;;10.70;99.90;;;;;;5037742;28;20041;-65
2022/09/18 09:08:48;;;;;;;9.38;1.77;;;10.60;99.90;;;;;;5045792;28;20056;-65
2022/09/18 09:11:20;;;;;;;5.40;1.10;;;10.50;99.90;;;;;;5035623;28;20866;-65
2022/09/18 09:14:15;;;;;;;7.88;1.30;;;10.90;99.90;;;;;;5036812;28;20503;-65
2022/09/18 09:16:44;;;;;;;5.30;1.27;;;10.60;99.90;;;;;;5026486;28;20049;-65
2022/09/18 09:19:48;;;;;;;8.55;1.70;;;10.60;99.90;;;;;;5042300;28;20052;-65
2022/09/18 09:22:53;;;;;;;4.70;0.90;;;10.60;99.90;;;;;;5034415;28;20176;-65
2022/09/18 09:25:48;;;;;;;6.53;1.37;;;10.70;99.90;;;;;;5026020;28;20053;-64
2022/09/18 09:28:18;;;;;;;6.20;1.33;;;10.70;99.90;;;;;;5030449;28;20167;-64
2022/09/18 09:30:48;;;;;;;4.45;1.30;;;10.70;99.90;;;;;;5036775;28;20463;-65
2022/09/18 09:33:30;;;;;;;7.68;1.45;;;10.70;99.90;;;;;;5033461;28;20049;-65
2022/09/18 09:36:06;;;;;;;6.07;1.25;;;10.80;99.90;;;;;;5030289;28;20084;-64
2022/09/18 09:38:53;;;;;;;7.13;1.40;;;10.80;99.90;;;;;;5042294;28;20045;-64
2022/09/18 09:41:45;;;;;;;6.60;1.35;;;10.80;99.90;;;;;;5027298;28;20059;-64
2022/09/18 09:44:46;;;;;;;6.50;1.70;;;10.80;99.90;;;;;;5035926;28;20119;-64
2022/09/18 09:47:37;;;;;;;6.43;1.25;;;10.90;99.90;;;;;;5020541;28;20440;-64
2022/09/18 09:50:49;;;;;;;5.82;1.30;;;10.90;99.90;;;;;;5017773;28;20135;-64
2022/09/18 09:53:14;;;;;;;9.48;1.77;;;10.90;99.90;;;;;;5031275;28;20128;-64
2022/09/18 09:56:11;;;;;;;6.25;1.35;;;10.90;99.90;;;;;;5039988;28;20531;-64
2022/09/18 09:58:58;;;;;;;7.13;1.27;;;10.90;99.90;;;;;;5027506;28;20033;-64
2022/09/18 10:01:34;;;;;;;6.25;1.02;;;10.90;99.90;;;;;;5023499;28;20136;-64
2022/09/18 10:04:28;;;;;;;7.47;1.20;;;10.90;99.90;;;;;;5024549;28;20675;-65
2022/09/18 10:07:04;;;;;;;8.40;1.58;;;11.00;99.90;;;;;;5030917;28;20056;-65
2022/09/18 10:09:51;;;;;;;9.77;1.83;;;11.00;99.90;;;;;;5029990;28;20037;-64
2022/09/18 10:12:25;;;;;;;8.18;1.50;;;11.10;99.90;;;;;;5040149;28;20064;-64
2022/09/18 10:14:58;;;;;;;9.15;1.77;;;11.20;99.90;;;;;;5039312;28;20939;-64
2022/09/18 10:17:26;;;;;;;7.70;1.40;;;11.40;99.90;;;;;;5033552;28;20055;-64
2022/09/18 10:19:52;;;;;;;7.85;1.67;;;11.40;99.90;;;;;;5045726;28;20449;-65
2022/09/18 10:22:22;;;;;;;6.50;1.30;;;11.50;99.90;;;;;;5030934;28;20099;-66
2022/09/18 10:25:02;;;;;;;8.45;1.95;;;11.50;99.90;;;;;;5040285;28;20118;-65
2022/09/18 10:27:27;;;;;;;7.28;1.35;;;11.60;99.90;;;;;;5028472;28;20085;-65
2022/09/18 10:29:53;;;;;;;4.45;1.25;;;11.50;99.90;;;;;;5036720;28;20541;-65
2022/09/18 10:32:34;;;;;;;9.38;1.52;;;11.60;99.90;;;;;;5036622;28;20519;-64
2022/09/18 10:34:59;;;;;;;7.93;1.33;;;11.70;99.90;;;;;;5037206;28;20037;-65
2022/09/18 10:37:28;;;;;;;9.35;1.30;;;11.60;99.90;;;;;;5044959;28;20102;-65
2022/09/18 10:39:56;;;;;;;7.40;1.77;;;11.70;99.90;;;;;;5041927;28;20041;-65
2022/09/18 10:42:27;;;;;;;10.25;2.08;;;11.70;99.90;;;;;;5041950;28;20470;-64
2022/09/18 10:45:01;;;;;;;6.22;1.20;;;11.80;99.90;;;;;;5028302;28;20038;-65
2022/09/18 10:47:32;;;;;;;7.05;1.30;;;11.80;99.90;;;;;;5026856;28;20124;-64
2022/09/18 10:50:15;;;;;;;9.38;1.52;;;11.80;99.90;;;;;;5033910;28;20037;-64
2022/09/18 10:52:43;;;;;;;10.40;1.80;;;11.90;99.90;;;;;;5028227;28;20447;-64
2022/09/18 10:55:19;;;;;;;8.93;1.55;;;12.00;99.90;;;;;;5028858;28;20103;-64
2022/09/18 10:58:02;;;;;;;7.78;1.63;;;12.00;99.90;;;;;;5048079;28;20052;-65
2022/09/18 11:00:29;;;;;;;7.35;1.65;;;12.10;99.90;;;;;;5056068;28;20421;-65
2022/09/18 11:03:03;;;;;;;8.73;1.70;;;12.20;99.90;;;;;;5056291;28;20033;-65
2022/09/18 11:05:34;;;;;;;7.85;1.80;;;12.20;99.90;;;;;;5037983;28;20399;-65
2022/09/18 11:08:05;;;;;;;11.10;2.00;;;12.30;99.90;;;;;;5045435;28;20041;-65
2022/09/18 11:10:31;;;;;;;8.52;1.45;;;12.40;99.90;;;;;;5046354;28;20462;-65
2022/09/18 11:13:00;;;;;;;7.72;1.60;;;12.40;99.90;;;;;;5030253;28;20077;-65
2022/09/18 11:15:31;;;;;;;7.20;1.38;;;12.50;99.90;;;;;;5055164;28;20083;-65
2022/09/18 11:18:01;;;;;;;6.63;1.33;;;12.50;99.90;;;;;;5045363;28;20064;-64
2022/09/18 11:20:33;;;;;;;9.25;1.70;;;12.60;99.90;;;;;;5035122;28;20124;-64
2022/09/18 11:23:17;;;;;;;7.68;1.60;;;12.60;99.90;;;;;;5041757;28;20037;-65
2022/09/18 11:25:46;;;;;;;7.33;1.77;;;12.70;99.90;;;;;;5027993;28;20057;-64
2022/09/18 11:28:27;;;;;;;8.00;1.75;;;12.70;99.90;;;;;;5043934;28;20412;-64
2022/09/18 11:31:04;;;;;;;12.90;1.90;;;12.80;99.90;;;;;;5034421;28;20072;-65
2022/09/18 11:33:36;;;;;;;9.15;1.65;;;12.90;99.90;;;;;;5035685;28;20488;-65
2022/09/18 11:36:09;;;;;;;6.90;1.80;;;12.90;99.90;;;;;;5027642;28;20415;-64
2022/09/18 11:38:45;;;;;;;6.50;1.60;;;13.00;99.90;;;;;;5026540;28;20399;-65
2022/09/18 11:41:19;;;;;;;11.27;2.13;;;13.10;99.90;;;;;;5029201;28;20099;-65
2022/09/18 11:43:45;;;;;;;6.70;1.40;;;13.30;99.90;;;;;;5040202;28;20061;-64
2022/09/18 11:46:32;;;;;;;6.80;1.73;;;13.30;99.90;;;;;;5028656;28;20034;-64
2022/09/18 11:49:11;;;;;;;7.57;1.55;;;13.50;99.90;;;;;;5038569;28;20492;-65
2022/09/18 11:51:55;;;;;;;8.85;1.52;;;13.40;99.90;;;;;;5046492;28;20044;-64
2022/09/18 11:54:31;;;;;;;12.00;1.83;;;13.40;99.90;;;;;;5027249;28;20416;-65
2022/09/18 11:57:03;;;;;;;6.60;1.38;;;13.40;99.90;;;;;;5032661;28;20049;-65
2022/09/18 11:59:43;;;;;;;8.93;1.42;;;13.40;99.90;;;;;;5037767;28;20072;-64
2022/09/18 12:02:38;;;;;;;8.02;1.92;;;13.40;99.90;;;;;;5028804;28;20049;-65
2022/09/18 12:05:22;;;;;;;5.10;1.70;;;13.50;99.90;;;;;;5027619;28;20057;-65
2022/09/18 12:08:11;;;;;;;5.57;1.10;;;13.80;99.90;;;;;;5040100;28;20049;-65
2022/09/18 12:11:02;;;;;;;9.82;1.42;;;13.90;99.90;;;;;;5035745;28;20064;-65
2022/09/18 12:13:39;;;;;;;6.03;1.10;;;14.30;99.90;;;;;;5041610;28;20049;-65
2022/09/18 12:16:29;;;;;;;7.32;1.30;;;14.50;99.90;;;;;;5027295;28;20050;-65
2022/09/18 12:19:04;;;;;;;7.00;1.30;;;14.80;99.90;;;;;;5033168;28;20859;-65
2022/09/18 12:21:38;;;;;;;7.18;1.23;;;15.10;99.90;;;;;;5034832;28;20087;-66
2022/09/18 12:24:06;;;;;;;5.32;1.00;;;15.30;99.90;;;;;;5040079;28;20049;-66
2022/09/18 12:26:43;;;;;;;8.13;1.50;;;15.20;99.90;;;;;;5030213;28;20085;-65
2022/09/18 12:29:29;;;;;;;7.53;1.50;;;15.00;99.90;;;;;;5044709;28;20076;-65
2022/09/18 12:32:33;;;;;;;6.55;1.38;;;15.00;99.90;;;;;;5031132;28;20361;-65
2022/09/18 12:35:31;;;;;;;10.68;1.77;;;14.80;99.90;;;;;;5010257;28;20622;-66
2022/09/18 12:38:16;;;;;;;7.65;1.38;;;14.90;99.90;;;;;;5021300;28;20041;-67
2022/09/18 12:40:51;;;;;;;;;;;15.00;99.90;;;;;;5029252;28;20101;-66
2022/09/18 12:43:35;;;;;;;8.05;1.63;;;15.00;99.90;;;;;;5036667;28;19925;-66
2022/09/18 12:46:25;;;;;;;7.67;1.50;;;14.80;99.90;;;;;;5039413;28;20041;-66
2022/09/18 12:49:19;;;;;;;8.88;1.42;;;14.90;99.90;;;;;;5037676;28;20049;-66
2022/09/18 12:52:03;;;;;;;8.38;1.20;;;14.90;99.90;;;;;;5030910;28;20412;-66
2022/09/18 12:54:59;;;;;;;6.47;1.40;;;14.90;99.90;;;;;;5029143;28;20049;-66
2022/09/18 12:57:34;;;;;;;5.22;1.23;;;14.90;99.90;;;;;;5039060;28;20048;-65
2022/09/18 13:00:13;;;;;;;6.35;1.08;;;15.00;99.90;;;;;;5031317;28;20045;-65
2022/09/18 13:03:03;;;;;;;8.18;1.40;;;14.90;99.90;;;;;;5024078;28;20044;-65
2022/09/18 13:05:34;;;;;;;5.38;1.10;;;15.00;99.90;;;;;;5032631;28;20083;-64
2022/09/18 13:08:24;;;;;;;6.80;1.27;;;15.00;99.90;;;;;;5043503;28;20132;-69
2022/09/18 13:10:55;;;;;;;8.00;1.40;;;15.10;99.90;;;;;;5023469;28;20089;-62
2022/09/18 13:13:43;;;;;;;11.02;1.67;;;15.00;99.90;;;;;;5023700;28;20133;-65
2022/09/18 13:16:12;;;;;;;5.93;1.30;;;14.90;99.90;;;;;;5034464;28;20419;-65